Lochloosa, Florida
Current Conditions -  °F | °C
As of 10:53 PM on Friday 19 Dec 2014 (Local Time) from KGNV Reporting Station
Clear Clear  
Wind Chill: 53°   Ceiling: Unl
Heat Index: 53°   Visibility: 10mi
Dew Point: 41°   Wind: 0mph
Humidity: 64%   Direction: NA
Pressure: 30.12"   Gusts: NA
Location:  29.51°N, 82.1°W
Report Text: KGNV 200353Z AUTO 00000KT 10SM CLR 12/05 A3012 RMK AO2 SLP200 T01170050
Loading
Personal Weather Stations






























Interactive Weather Map New forecast layout! Learn more

10-Day Weather Forecast

Advertisements
Track Severe Weather on mobile